Churanov, Czech Republic
Current Conditions -  °F | °C
As of 6:00 AM on Wednesday 26 Nov 2014 (Local Time) from LKLN Reporting Station
Overcast Overcast  
Wind Chill: 32°   Ceiling: 2100
Heat Index: 37°   Visibility: 6mi
Dew Point: 32°   Wind: 7mph
Humidity: 81%   Direction: 80°E
Pressure: 30.18"   Gusts: NA
Location:  49.07°N, 13.62°E
Report Text: LKLN 260400Z AUTO 08006KT 9999 OVC021 03/M00 Q1022
Loading
Personal Weather Stations






























Interactive Weather Map New forecast layout! Learn more

10-Day Weather Forecast

Advertisements
Track Severe Weather on mobile